createdAt,value
2019-03-06T00:01:21.500Z,4.68
2019-03-06T00:03:49.272Z,4.60
2019-03-06T00:06:19.769Z,4.65
2019-03-06T00:08:47.543Z,4.58
2019-03-06T00:11:15.565Z,4.58
2019-03-06T00:13:43.340Z,4.68
2019-03-06T00:16:11.086Z,4.57
2019-03-06T00:18:38.871Z,4.56
2019-03-06T00:21:06.625Z,4.57
2019-03-06T00:23:34.406Z,4.48
2019-03-06T00:26:02.161Z,4.51
2019-03-06T00:28:29.957Z,4.47
2019-03-06T00:30:57.693Z,4.52
2019-03-06T00:33:25.458Z,4.49
2019-03-06T00:35:53.803Z,4.49
2019-03-06T00:38:21.753Z,4.46
2019-03-06T00:41:07.223Z,4.43
2019-03-06T00:43:35.095Z,4.40
2019-03-06T00:46:02.877Z,4.44
2019-03-06T00:48:31.324Z,4.53
2019-03-06T00:50:59.128Z,4.54
2019-03-06T00:53:26.895Z,4.50
2019-03-06T00:55:54.653Z,4.51
2019-03-06T00:58:22.557Z,4.53
2019-03-06T01:00:50.289Z,4.48
2019-03-06T01:03:18.645Z,4.54
2019-03-06T01:05:46.421Z,4.55
2019-03-06T01:08:14.195Z,4.42
2019-03-06T01:10:43.410Z,4.40
2019-03-06T01:13:13.081Z,4.35
2019-03-06T01:15:40.839Z,4.41
2019-03-06T01:18:08.603Z,4.36
2019-03-06T01:20:36.347Z,4.25
2019-03-06T01:23:04.147Z,4.31
2019-03-06T01:25:31.890Z,4.31
2019-03-06T01:27:59.779Z,4.31
2019-03-06T01:30:27.596Z,4.29
2019-03-06T01:33:00.677Z,4.31
2019-03-06T01:35:35.663Z,4.27
2019-03-06T01:38:18.229Z,4.25
2019-03-06T01:40:56.491Z,4.25
2019-03-06T01:43:29.188Z,4.23
2019-03-06T01:45:57.262Z,4.22
2019-03-06T01:48:24.998Z,4.17
2019-03-06T01:50:52.806Z,4.19
2019-03-06T01:53:27.856Z,4.25
2019-03-06T01:55:55.705Z,4.18
2019-03-06T01:58:23.742Z,4.15
2019-03-06T02:00:51.505Z,4.15
2019-03-06T02:03:19.238Z,4.18
2019-03-06T02:05:47.002Z,4.14
2019-03-06T02:08:16.052Z,4.10
2019-03-06T02:10:43.792Z,4.06
2019-03-06T02:13:11.845Z,4.15
2019-03-06T02:15:39.620Z,4.10
2019-03-06T02:18:07.355Z,4.17
2019-03-06T02:20:35.140Z,4.11
2019-03-06T02:23:03.035Z,4.09
2019-03-06T02:25:30.768Z,4.05
2019-03-06T02:27:58.544Z,4.05
2019-03-06T02:30:26.436Z,4.06
2019-03-06T02:32:54.187Z,4.01
2019-03-06T02:35:21.938Z,3.97
2019-03-06T02:37:49.697Z,4.00
2019-03-06T02:40:17.578Z,3.98
2019-03-06T02:42:45.342Z,4.06
2019-03-06T02:45:14.424Z,4.03
2019-03-06T02:47:42.304Z,4.06
2019-03-06T02:50:11.293Z,3.99
2019-03-06T02:52:39.230Z,4.00
2019-03-06T02:55:07.572Z,4.03
2019-03-06T02:57:35.714Z,3.99
2019-03-06T03:00:42.941Z,3.93
2019-03-06T03:03:21.118Z,3.94
2019-03-06T03:05:53.557Z,3.98
2019-03-06T03:08:21.281Z,3.94
2019-03-06T03:10:49.029Z,3.95
2019-03-06T03:13:16.765Z,3.91
2019-03-06T03:15:45.291Z,3.86
2019-03-06T03:18:13.031Z,3.82
2019-03-06T03:20:40.804Z,3.94
2019-03-06T03:23:08.539Z,3.88
2019-03-06T03:25:36.293Z,3.90
2019-03-06T03:28:04.163Z,3.87
2019-03-06T03:30:31.927Z,3.82
2019-03-06T03:32:59.691Z,3.83
2019-03-06T03:35:27.477Z,3.84
2019-03-06T03:37:55.421Z,4.05
2019-03-06T03:40:23.186Z,3.90
2019-03-06T03:42:51.122Z,3.87
2019-03-06T03:45:18.870Z,3.97
2019-03-06T03:47:46.728Z,4.00
2019-03-06T03:50:14.522Z,3.99
2019-03-06T03:52:42.785Z,4.09
2019-03-06T03:55:10.791Z,4.11
2019-03-06T03:57:38.642Z,4.03
2019-03-06T04:00:09.449Z,4.07
2019-03-06T04:02:37.330Z,4.09
2019-03-06T04:05:05.810Z,4.10
2019-03-06T04:07:33.569Z,4.03
2019-03-06T04:10:01.310Z,4.08
2019-03-06T04:12:29.075Z,4.09
2019-03-06T04:14:56.833Z,4.23
2019-03-06T04:17:24.599Z,4.15
2019-03-06T04:19:52.649Z,4.18
2019-03-06T04:22:20.436Z,4.21
2019-03-06T04:24:48.195Z,4.18
2019-03-06T04:27:15.936Z,4.15
2019-03-06T04:29:43.692Z,4.16
2019-03-06T04:32:11.489Z,4.15
2019-03-06T04:34:39.452Z,4.22
2019-03-06T04:37:07.214Z,4.33
2019-03-06T04:39:35.399Z,4.36
2019-03-06T04:42:03.192Z,4.30
2019-03-06T04:44:30.927Z,4.28
2019-03-06T04:46:58.743Z,4.35
2019-03-06T04:49:26.485Z,4.33
2019-03-06T04:51:54.263Z,4.23
2019-03-06T04:54:22.031Z,4.29
2019-03-06T04:56:49.915Z,4.33
2019-03-06T04:59:17.649Z,4.17
2019-03-06T05:01:45.729Z,4.17
2019-03-06T05:04:13.501Z,4.17
2019-03-06T05:06:41.283Z,4.29
2019-03-06T05:09:09.057Z,4.15
2019-03-06T05:11:36.815Z,4.29
2019-03-06T05:14:04.563Z,4.17
2019-03-06T05:17:09.853Z,4.21
2019-03-06T05:19:37.783Z,4.29
2019-03-06T05:22:05.827Z,4.24
2019-03-06T05:24:33.555Z,4.27
2019-03-06T05:27:01.315Z,4.26
2019-03-06T05:29:29.063Z,4.10
2019-03-06T05:32:34.278Z,4.10
2019-03-06T05:35:07.180Z,4.19
2019-03-06T05:38:14.045Z,4.05
2019-03-06T05:40:41.757Z,4.03
2019-03-06T05:43:09.523Z,4.03
2019-03-06T05:45:37.302Z,4.17
2019-03-06T05:48:05.188Z,4.15
2019-03-06T05:50:33.087Z,4.16
2019-03-06T05:53:00.876Z,4.25
2019-03-06T05:55:29.466Z,4.17
2019-03-06T05:57:57.269Z,4.10
2019-03-06T06:00:26.276Z,4.16
2019-03-06T06:02:54.103Z,4.19
2019-03-06T06:05:21.880Z,4.30
2019-03-06T06:07:49.656Z,4.32
2019-03-06T06:10:17.422Z,4.30
2019-03-06T06:12:45.206Z,4.27
2019-03-06T06:15:13.156Z,4.23
2019-03-06T06:17:41.038Z,4.44
2019-03-06T06:20:10.018Z,4.46
2019-03-06T06:22:59.332Z,4.45
2019-03-06T06:25:28.037Z,4.41
2019-03-06T06:27:55.826Z,4.49
2019-03-06T06:30:23.551Z,4.51
2019-03-06T06:32:51.374Z,4.51
2019-03-06T06:35:19.119Z,4.58
2019-03-06T06:37:46.866Z,4.43
2019-03-06T06:40:14.756Z,4.58
2019-03-06T06:42:42.526Z,4.57
2019-03-06T06:45:10.604Z,4.48
2019-03-06T06:48:07.199Z,4.53
2019-03-06T06:50:35.174Z,4.51
2019-03-06T06:53:53.353Z,4.66
2019-03-06T06:57:07.659Z,4.72
2019-03-06T07:00:52.145Z,4.84
2019-03-06T07:04:13.165Z,5.05
2019-03-06T07:06:48.698Z,5.09
2019-03-06T07:09:31.173Z,5.02
2019-03-06T07:12:07.935Z,5.16
2019-03-06T07:15:04.239Z,5.22
2019-03-06T07:17:40.426Z,5.21
2019-03-06T07:20:14.199Z,5.27
2019-03-06T07:22:52.686Z,5.29
2019-03-06T07:25:35.017Z,5.46
2019-03-06T07:28:19.763Z,5.59
2019-03-06T07:31:25.178Z,5.57
2019-03-06T07:34:07.696Z,5.78
2019-03-06T07:36:53.448Z,5.73
2019-03-06T07:39:34.943Z,5.94
2019-03-06T07:42:22.394Z,6.12
2019-03-06T07:45:55.949Z,6.29
2019-03-06T07:48:32.322Z,6.31
2019-03-06T07:51:19.668Z,6.41
2019-03-06T07:54:07.896Z,6.41
2019-03-06T07:56:44.430Z,6.47
2019-03-06T07:59:12.254Z,6.39
2019-03-06T08:01:56.704Z,6.40
2019-03-06T08:04:24.458Z,6.74
2019-03-06T08:07:02.203Z,6.77
2019-03-06T08:09:29.974Z,6.99
2019-03-06T08:12:15.722Z,7.06
2019-03-06T08:15:08.852Z,7.28
2019-03-06T08:17:55.034Z,7.43
2019-03-06T08:20:44.913Z,7.41
2019-03-06T08:23:34.350Z,7.64
2019-03-06T08:26:03.809Z,7.80
2019-03-06T08:28:31.571Z,7.86
2019-03-06T08:31:17.605Z,7.84
2019-03-06T08:33:45.463Z,7.98
2019-03-06T08:36:13.273Z,8.12
2019-03-06T08:38:41.077Z,8.34
2019-03-06T08:41:08.856Z,8.63
2019-03-06T08:43:36.695Z,8.58
2019-03-06T08:46:35.872Z,8.51
2019-03-06T08:49:42.342Z,8.60
2019-03-06T08:52:32.489Z,8.51
2019-03-06T08:55:18.315Z,8.82
2019-03-06T08:58:14.243Z,9.06
2019-03-06T09:01:00.147Z,9.20
2019-03-06T09:03:47.921Z,9.16
2019-03-06T09:06:35.397Z,8.99
2019-03-06T09:09:17.671Z,9.20
2019-03-06T09:12:20.070Z,9.20
2019-03-06T09:15:23.786Z,9.25
2019-03-06T09:18:09.585Z,9.81
2019-03-06T09:20:55.966Z,9.74
2019-03-06T09:23:41.675Z,9.69
2019-03-06T09:26:15.979Z,10.13
2019-03-06T09:29:09.244Z,10.62
2019-03-06T09:31:44.350Z,10.91
2019-03-06T09:34:19.159Z,11.37
2019-03-06T09:37:06.528Z,11.92
2019-03-06T09:40:03.071Z,12.37
2019-03-06T09:42:56.339Z,12.55
2019-03-06T09:45:43.101Z,12.74
2019-03-06T09:48:23.662Z,12.84
2019-03-06T09:51:00.445Z,12.82
2019-03-06T09:53:53.716Z,12.93
2019-03-06T09:56:38.290Z,12.24
2019-03-06T09:59:15.096Z,13.00
2019-03-06T10:02:08.350Z,15.30
2019-03-06T10:04:47.560Z,17.62
2019-03-06T10:07:33.627Z,17.55
2019-03-06T10:10:06.100Z,18.34
2019-03-06T10:13:05.547Z,15.88
2019-03-06T10:15:42.836Z,15.53
2019-03-06T10:18:33.387Z,15.04
2019-03-06T10:21:01.136Z,14.76
2019-03-06T10:23:29.261Z,14.37
2019-03-06T10:25:57.082Z,14.45
2019-03-06T10:28:28.027Z,14.23
2019-03-06T10:31:02.054Z,14.07
2019-03-06T10:33:24.232Z,14.33
2019-03-06T10:35:52.050Z,14.74
2019-03-06T10:38:19.958Z,15.13
2019-03-06T10:40:47.806Z,15.24
2019-03-06T10:43:15.618Z,16.07
2019-03-06T10:45:43.383Z,17.12
2019-03-06T10:48:11.193Z,16.94
2019-03-06T10:50:39.068Z,16.45
2019-03-06T10:53:06.858Z,15.59
2019-03-06T10:55:34.596Z,14.92
2019-03-06T10:58:03.352Z,15.39
2019-03-06T11:00:35.317Z,15.57
2019-03-06T11:03:03.524Z,15.75
2019-03-06T11:05:39.161Z,15.43
2019-03-06T11:08:07.290Z,16.36
2019-03-06T11:10:35.244Z,17.38
2019-03-06T11:13:08.752Z,17.76
2019-03-06T11:15:37.299Z,17.66
2019-03-06T11:18:05.432Z,16.72
2019-03-06T11:20:33.997Z,16.41
2019-03-06T11:23:04.331Z,15.15
2019-03-06T11:25:34.069Z,15.62
2019-03-06T11:28:02.178Z,16.24
2019-03-06T11:30:35.617Z,16.58
2019-03-06T11:33:05.165Z,17.11
2019-03-06T11:35:34.235Z,17.31
2019-03-06T11:38:02.145Z,17.54
2019-03-06T11:40:30.172Z,18.40
2019-03-06T11:42:57.970Z,18.12
2019-03-06T11:45:25.732Z,16.72
2019-03-06T11:47:53.570Z,16.01
2019-03-06T11:50:23.647Z,16.44
2019-03-06T11:52:51.974Z,15.98
2019-03-06T11:55:20.281Z,16.52
2019-03-06T11:57:48.113Z,18.21
2019-03-06T12:00:37.680Z,19.66
2019-03-06T12:03:06.350Z,19.62
2019-03-06T12:05:35.266Z,19.49
2019-03-06T12:08:07.090Z,19.77
2019-03-06T12:10:34.917Z,19.64
2019-03-06T12:13:06.082Z,17.97
2019-03-06T12:15:33.830Z,17.49
2019-03-06T12:18:01.633Z,18.14
2019-03-06T12:20:29.376Z,19.75
2019-03-06T12:22:57.257Z,20.58
2019-03-06T12:25:24.978Z,21.10
2019-03-06T12:27:52.742Z,20.51
2019-03-06T12:30:20.615Z,20.28
2019-03-06T12:32:48.420Z,20.97
2019-03-06T12:35:17.067Z,21.58
2019-03-06T12:37:47.140Z,22.79
2019-03-06T12:40:15.336Z,22.39
2019-03-06T12:42:43.190Z,22.60
2019-03-06T12:45:13.560Z,24.41
2019-03-06T12:47:43.030Z,24.86
2019-03-06T12:50:14.876Z,24.89
2019-03-06T12:52:42.598Z,23.33
2019-03-06T12:55:10.915Z,21.84
2019-03-06T12:57:38.679Z,22.54
2019-03-06T13:00:16.695Z,25.46
2019-03-06T13:02:44.679Z,26.14
2019-03-06T13:05:12.727Z,27.68
2019-03-06T13:07:40.577Z,27.87
2019-03-06T13:10:09.585Z,26.95
2019-03-06T13:12:38.279Z,27.87
2019-03-06T13:15:08.578Z,27.24
2019-03-06T13:17:36.485Z,23.79
2019-03-06T13:20:08.919Z,22.63
2019-03-06T13:22:36.951Z,23.41
2019-03-06T13:25:05.774Z,25.55
2019-03-06T13:27:33.559Z,23.66
2019-03-06T13:30:01.425Z,24.27
2019-03-06T13:32:40.313Z,23.76
2019-03-06T13:35:08.176Z,25.78
2019-03-06T13:37:35.980Z,24.87
2019-03-06T13:40:04.643Z,23.64
2019-03-06T13:42:32.414Z,22.97
2019-03-06T13:45:00.325Z,24.32
2019-03-06T13:47:28.257Z,21.71
2019-03-06T13:49:56.184Z,20.78
2019-03-06T13:52:24.004Z,20.67
2019-03-06T13:54:51.863Z,20.61
2019-03-06T13:57:20.628Z,19.25
2019-03-06T13:59:48.416Z,19.09
2019-03-06T14:02:16.332Z,19.00
2019-03-06T14:04:44.071Z,18.27
2019-03-06T14:07:12.058Z,18.10
2019-03-06T14:09:39.943Z,17.79
2019-03-06T14:12:07.715Z,17.12
2019-03-06T14:14:35.493Z,16.26
2019-03-06T14:17:05.751Z,15.92
2019-03-06T14:19:33.546Z,15.46
2019-03-06T14:22:01.645Z,15.22
2019-03-06T14:24:30.382Z,15.30
2019-03-06T14:26:58.157Z,15.44
2019-03-06T14:29:25.965Z,15.12
2019-03-06T14:31:53.800Z,15.32
2019-03-06T14:34:21.555Z,15.39
2019-03-06T14:36:49.380Z,15.27
2019-03-06T14:39:29.079Z,15.27
2019-03-06T14:41:58.041Z,15.02
2019-03-06T14:44:25.818Z,14.88
2019-03-06T14:46:53.626Z,14.67
2019-03-06T14:49:21.614Z,14.62
2019-03-06T14:51:49.800Z,14.61
2019-03-06T14:54:17.589Z,14.58
2019-03-06T14:56:45.363Z,14.60
2019-03-06T14:59:13.107Z,14.58
2019-03-06T15:01:41.061Z,14.54
2019-03-06T15:04:08.842Z,14.49
2019-03-06T15:06:36.629Z,14.49
2019-03-06T15:09:21.635Z,14.53
2019-03-06T15:11:49.415Z,14.58
2019-03-06T15:14:17.429Z,14.68
2019-03-06T15:16:45.280Z,14.92
2019-03-06T15:19:13.068Z,14.93
2019-03-06T15:21:40.896Z,14.98
2019-03-06T15:24:08.757Z,15.03
2019-03-06T15:26:36.527Z,14.92
2019-03-06T15:29:04.321Z,15.33
2019-03-06T15:31:32.075Z,15.52
2019-03-06T15:33:59.850Z,15.35
2019-03-06T15:36:28.111Z,15.18
2019-03-06T15:38:55.875Z,15.04
2019-03-06T15:41:23.644Z,14.98
2019-03-06T15:43:51.432Z,14.68
2019-03-06T15:46:19.418Z,14.75
2019-03-06T15:48:47.218Z,14.46
2019-03-06T15:51:14.967Z,14.39
2019-03-06T15:53:43.800Z,14.31
2019-03-06T15:56:11.576Z,14.24
2019-03-06T15:58:39.352Z,14.25
2019-03-06T16:01:07.418Z,14.24
2019-03-06T16:03:35.204Z,14.06
2019-03-06T16:06:03.074Z,14.00
2019-03-06T16:08:31.245Z,14.09
2019-03-06T16:10:58.987Z,13.95
2019-03-06T16:13:26.776Z,13.90
2019-03-06T16:15:55.509Z,13.98
2019-03-06T16:18:23.371Z,13.85
2019-03-06T16:20:54.648Z,13.82
2019-03-06T16:23:22.660Z,13.87
2019-03-06T16:25:50.415Z,13.68
2019-03-06T16:28:18.217Z,13.72
2019-03-06T16:30:46.321Z,13.73
2019-03-06T16:33:14.099Z,13.70
2019-03-06T16:35:41.923Z,13.62
2019-03-06T16:38:12.246Z,13.56
2019-03-06T16:40:40.132Z,13.44
2019-03-06T16:43:07.929Z,13.44
2019-03-06T16:45:35.673Z,13.36
2019-03-06T16:48:06.818Z,13.41
2019-03-06T16:50:34.737Z,13.32
2019-03-06T16:53:02.795Z,13.15
2019-03-06T16:55:30.597Z,13.08
2019-03-06T16:57:59.329Z,13.04
2019-03-06T17:00:31.181Z,12.97
2019-03-06T17:03:00.306Z,12.98
2019-03-06T17:05:28.284Z,13.01
2019-03-06T17:07:58.860Z,13.08
2019-03-06T17:10:27.144Z,13.06
2019-03-06T17:12:55.817Z,12.96
2019-03-06T17:15:24.870Z,13.04
2019-03-06T17:17:53.301Z,13.15
2019-03-06T17:20:23.300Z,13.10
2019-03-06T17:22:51.572Z,13.22
2019-03-06T17:25:19.474Z,13.18
2019-03-06T17:27:47.234Z,13.03
2019-03-06T17:30:18.777Z,13.03
2019-03-06T17:33:05.192Z,12.91
2019-03-06T17:35:33.636Z,12.89
2019-03-06T17:38:02.466Z,12.76
2019-03-06T17:40:30.746Z,12.82
2019-03-06T17:42:58.682Z,12.75
2019-03-06T17:45:27.157Z,12.77
2019-03-06T17:47:55.234Z,12.79
2019-03-06T17:50:23.823Z,12.84
2019-03-06T17:52:51.772Z,12.78
2019-03-06T17:55:19.958Z,12.81
2019-03-06T17:57:47.699Z,12.76
2019-03-06T18:00:17.321Z,12.62
2019-03-06T18:02:45.230Z,12.67
2019-03-06T18:05:13.422Z,12.62
2019-03-06T18:07:41.184Z,12.56
2019-03-06T18:10:11.491Z,12.77
2019-03-06T18:12:39.260Z,12.79
2019-03-06T18:15:09.759Z,12.64
2019-03-06T18:17:38.025Z,12.82
2019-03-06T18:20:08.682Z,12.67
2019-03-06T18:22:36.479Z,12.71
2019-03-06T18:25:05.983Z,12.77
2019-03-06T18:27:33.841Z,12.83
2019-03-06T18:30:01.617Z,12.72
2019-03-06T18:32:29.383Z,12.59
2019-03-06T18:34:57.590Z,12.55
2019-03-06T18:37:25.379Z,12.50
2019-03-06T18:39:53.175Z,12.52
2019-03-06T18:42:20.922Z,12.39
2019-03-06T18:44:48.704Z,12.41
2019-03-06T18:47:16.451Z,12.35
2019-03-06T18:49:44.220Z,12.27
2019-03-06T18:52:12.205Z,12.32
2019-03-06T18:54:39.991Z,12.41
2019-03-06T18:57:07.795Z,12.47
2019-03-06T18:59:35.559Z,12.42
2019-03-06T19:02:03.534Z,12.43
2019-03-06T19:04:31.547Z,12.36
2019-03-06T19:06:59.323Z,12.30
2019-03-06T19:09:27.386Z,12.30
2019-03-06T19:11:55.306Z,12.20
2019-03-06T19:14:23.092Z,12.22
2019-03-06T19:16:50.944Z,12.23
2019-03-06T19:19:18.727Z,12.28
2019-03-06T19:21:46.618Z,12.13
2019-03-06T19:24:14.513Z,12.08
2019-03-06T19:26:42.285Z,11.98
2019-03-06T19:29:10.161Z,11.95
2019-03-06T19:31:37.932Z,11.92
2019-03-06T19:34:05.829Z,11.85
2019-03-06T19:36:33.595Z,11.90
2019-03-06T19:39:01.332Z,12.02
2019-03-06T19:41:29.126Z,11.94
2019-03-06T19:43:56.979Z,11.91
2019-03-06T19:46:24.833Z,11.98
2019-03-06T19:48:52.597Z,11.98
2019-03-06T19:51:20.376Z,12.02
2019-03-06T19:53:48.165Z,12.03
2019-03-06T19:56:16.029Z,12.13
2019-03-06T19:58:43.827Z,12.15
2019-03-06T20:01:12.852Z,12.16
2019-03-06T20:03:40.641Z,12.24
2019-03-06T20:06:08.509Z,12.21
2019-03-06T20:08:36.880Z,12.14
2019-03-06T20:11:04.722Z,12.20
2019-03-06T20:13:32.488Z,12.04
2019-03-06T20:16:00.275Z,12.03
2019-03-06T20:18:28.212Z,11.93
2019-03-06T20:20:55.962Z,11.93
2019-03-06T20:23:23.757Z,11.91
2019-03-06T20:25:51.976Z,11.97
2019-03-06T20:28:19.841Z,11.98
2019-03-06T20:30:47.595Z,12.03
2019-03-06T20:33:15.383Z,12.02
2019-03-06T20:35:43.184Z,12.06
2019-03-06T20:38:11.012Z,12.08
2019-03-06T20:40:38.757Z,12.02
2019-03-06T20:43:07.549Z,12.02
2019-03-06T20:45:35.312Z,12.07
2019-03-06T20:48:03.121Z,12.19
2019-03-06T20:50:30.877Z,12.17
2019-03-06T20:52:58.693Z,12.14
2019-03-06T20:55:26.466Z,12.21
2019-03-06T20:57:54.555Z,12.20
2019-03-06T21:00:22.791Z,12.35
2019-03-06T21:02:50.709Z,12.31
2019-03-06T21:05:18.599Z,12.28
2019-03-06T21:07:46.458Z,12.23
2019-03-06T21:10:14.937Z,12.34
2019-03-06T21:12:43.917Z,12.42
2019-03-06T21:15:14.228Z,12.47
2019-03-06T21:17:42.045Z,12.39
2019-03-06T21:20:13.008Z,12.47
2019-03-06T21:22:40.775Z,12.53
2019-03-06T21:25:09.830Z,12.41
2019-03-06T21:27:37.648Z,12.48
2019-03-06T21:30:10.044Z,12.47
2019-03-06T21:32:37.832Z,12.41
2019-03-06T21:35:05.900Z,12.47
2019-03-06T21:37:33.745Z,12.43
2019-03-06T21:40:01.570Z,12.53
2019-03-06T21:42:29.336Z,12.54
2019-03-06T21:44:57.106Z,12.61
2019-03-06T21:47:25.180Z,12.43
2019-03-06T21:49:53.024Z,12.37
2019-03-06T21:52:23.016Z,12.53
2019-03-06T21:54:50.494Z,12.40
2019-03-06T21:57:18.292Z,12.39
2019-03-06T21:59:46.089Z,12.40
2019-03-06T22:02:13.849Z,12.42
2019-03-06T22:04:41.871Z,12.51
2019-03-06T22:07:09.688Z,12.50
2019-03-06T22:09:37.455Z,12.48
2019-03-06T22:12:05.237Z,12.39
2019-03-06T22:14:33.042Z,12.43
2019-03-06T22:17:02.594Z,12.42
2019-03-06T22:19:31.616Z,12.47
2019-03-06T22:21:59.566Z,12.49
2019-03-06T22:24:27.316Z,12.57
2019-03-06T22:26:55.083Z,12.46
2019-03-06T22:29:22.885Z,12.48
2019-03-06T22:31:50.698Z,12.41
2019-03-06T22:34:18.593Z,12.28
2019-03-06T22:36:46.674Z,12.31
2019-03-06T22:39:14.441Z,12.41
2019-03-06T22:41:42.265Z,12.40
2019-03-06T22:44:10.060Z,12.35
2019-03-06T22:46:37.809Z,12.45
2019-03-06T22:49:05.601Z,12.46
2019-03-06T22:51:33.380Z,12.47
2019-03-06T22:54:01.293Z,12.53
2019-03-06T22:56:29.078Z,12.52
2019-03-06T22:58:56.865Z,12.49
2019-03-06T23:01:29.135Z,12.54
2019-03-06T23:03:57.241Z,12.46
2019-03-06T23:06:25.146Z,12.51
2019-03-06T23:08:52.963Z,12.48
2019-03-06T23:11:21.227Z,12.40
2019-03-06T23:13:48.979Z,12.45
2019-03-06T23:16:16.772Z,12.51
2019-03-06T23:18:44.525Z,12.41
2019-03-06T23:21:12.302Z,12.47
2019-03-06T23:23:40.283Z,12.53
2019-03-06T23:26:08.085Z,12.52
2019-03-06T23:28:35.852Z,12.58
2019-03-06T23:31:03.635Z,12.52
2019-03-06T23:33:31.407Z,12.46
2019-03-06T23:35:59.190Z,12.41
2019-03-06T23:38:26.941Z,12.47
2019-03-06T23:40:54.711Z,12.55
2019-03-06T23:43:22.488Z,12.47
2019-03-06T23:45:50.273Z,12.47
2019-03-06T23:48:18.035Z,12.45
2019-03-06T23:50:45.985Z,12.55
2019-03-06T23:53:29.120Z,12.55
2019-03-06T23:55:56.933Z,12.42
2019-03-06T23:58:24.676Z,12.37
